Terminal Aerodrome Forecast
Issued by NWS Melbourne, FL

Home | Current Version | Previous Version | Text Only | Print | Product List | Glossary On
Versions: 1 2 3 4 5 6 7 8 9 10 11 12 13 14 15 16 17 18
000
FTUS42 KMLB 052340
TAFMLB
TAF
KMLB 052340Z 0600/0624 27010KT P6SM VCTS SCT025CB SCT045 BKN100
      TEMPO 0600/0602 VRB12G22KT 3SM +TSRA BKN025CB OVC040
     FM060400 VRB03KT P6SM SCT050 BKN250
     FM061400 18007KT P6SM SCT025 SCT250
     FM061700 12009KT P6SM VCTS SCT035CB BKN250=

USA.gov is the U.S. government's official web portal to all federal, state and local government web resources and services.